createdAt,value
2023-05-15T00:00:15.708Z,101588.81
2023-05-15T00:14:07.254Z,101593.72
2023-05-15T00:16:50.330Z,101600.22
2023-05-15T00:23:15.181Z,101594.63
2023-05-15T00:26:29.194Z,101608.47
2023-05-15T00:29:03.058Z,101610.81
2023-05-15T00:37:53.738Z,101610.03
2023-05-15T00:40:25.449Z,101615.53
2023-05-15T00:42:58.225Z,101620.31
2023-05-15T00:54:46.320Z,101631.69
2023-05-15T00:57:44.639Z,101627.78
2023-05-15T01:00:19.102Z,101630.00
2023-05-15T01:06:00.390Z,101632.22
2023-05-15T01:08:40.309Z,101625.84
2023-05-15T01:11:11.588Z,101628.81
2023-05-15T01:16:34.692Z,101626.50
2023-05-15T01:19:17.491Z,101631.88
2023-05-15T01:22:13.741Z,101631.28
2023-05-15T01:25:01.546Z,101628.72
2023-05-15T01:27:38.177Z,101638.63
2023-05-15T01:30:21.640Z,101626.13
2023-05-15T01:32:57.497Z,101622.00
2023-05-15T01:35:47.797Z,101629.72
2023-05-15T01:38:27.813Z,101632.53
2023-05-15T01:41:06.972Z,101640.38
2023-05-15T01:43:43.903Z,101636.97
2023-05-15T01:46:15.796Z,101641.88
2023-05-15T01:48:47.088Z,101641.97
2023-05-15T01:51:16.110Z,101646.50
2023-05-15T01:53:47.643Z,101646.00
2023-05-15T01:56:17.053Z,101648.69
2023-05-15T01:58:49.751Z,101650.78
2023-05-15T02:01:21.213Z,101659.09
2023-05-15T02:03:50.671Z,101646.75
2023-05-15T02:06:22.199Z,101653.84
2023-05-15T02:17:30.498Z,101644.31
2023-05-15T02:19:58.964Z,101640.28
2023-05-15T02:22:27.157Z,101643.06
2023-05-15T02:25:00.274Z,101642.47
2023-05-15T02:30:39.784Z,101642.22
2023-05-15T02:33:26.277Z,101647.94
2023-05-15T02:36:04.373Z,101644.78
2023-05-15T02:38:42.400Z,101651.34
2023-05-15T02:41:12.075Z,101649.25
2023-05-15T02:43:41.610Z,101652.09
2023-05-15T02:46:13.094Z,101652.09
2023-05-15T02:48:44.419Z,101664.38
2023-05-15T02:51:22.435Z,101668.06
2023-05-15T02:53:50.941Z,101668.53
2023-05-15T02:56:19.409Z,101674.97
2023-05-15T02:58:51.863Z,101686.97
2023-05-15T03:01:21.413Z,101690.84
2023-05-15T03:03:51.133Z,101681.44
2023-05-15T03:06:19.868Z,101677.38
2023-05-15T03:08:50.338Z,101689.94
2023-05-15T03:11:21.321Z,101689.34
2023-05-15T03:16:46.816Z,101702.13
2023-05-15T03:19:19.280Z,101694.41
2023-05-15T03:21:47.714Z,101701.50
2023-05-15T03:24:15.883Z,101705.38
2023-05-15T03:26:45.243Z,101707.31
2023-05-15T03:29:13.366Z,101711.19
2023-05-15T03:31:43.477Z,101703.38
2023-05-15T03:34:11.908Z,101710.69
2023-05-15T03:36:41.534Z,101708.13
2023-05-15T03:39:09.593Z,101716.53
2023-05-15T03:41:43.083Z,101731.84
2023-05-15T03:44:11.470Z,101724.06
2023-05-15T03:46:40.023Z,101728.44
2023-05-15T03:49:08.118Z,101728.56
2023-05-15T03:51:37.358Z,101730.56
2023-05-15T03:54:08.592Z,101732.50
2023-05-15T03:56:37.679Z,101733.47
2023-05-15T03:59:09.116Z,101738.94
2023-05-15T04:01:50.318Z,101737.34
2023-05-15T04:04:28.162Z,101735.88
2023-05-15T04:09:57.291Z,101754.22
2023-05-15T04:12:28.350Z,101746.28
2023-05-15T04:15:00.774Z,101743.09
2023-05-15T04:17:28.704Z,101743.81
2023-05-15T04:19:59.329Z,101749.31
2023-05-15T04:22:27.934Z,101745.78
2023-05-15T04:24:58.262Z,101746.75
2023-05-15T04:27:27.465Z,101738.69
2023-05-15T04:29:59.916Z,101746.75
2023-05-15T04:32:30.995Z,101751.25
2023-05-15T04:35:00.644Z,101755.72
2023-05-15T04:37:31.832Z,101758.53
2023-05-15T04:40:06.812Z,101762.06
2023-05-15T04:42:35.721Z,101759.38
2023-05-15T04:45:04.161Z,101763.03
2023-05-15T04:47:34.680Z,101765.72
2023-05-15T04:50:04.340Z,101768.41
2023-05-15T04:52:32.544Z,101758.66
2023-05-15T04:55:02.175Z,101763.91
2023-05-15T04:57:43.276Z,101765.00
2023-05-15T05:00:13.202Z,101762.06
2023-05-15T05:02:47.736Z,101766.44
2023-05-15T05:06:16.981Z,101769.91
2023-05-15T05:08:45.090Z,101773.75
2023-05-15T05:11:17.590Z,101774.50
2023-05-15T05:13:48.904Z,101769.91
2023-05-15T05:16:17.265Z,101773.31
2023-05-15T05:18:45.653Z,101769.44
2023-05-15T05:21:14.456Z,101777.50
2023-05-15T05:23:51.917Z,101778.22
2023-05-15T05:26:22.896Z,101790.69
2023-05-15T05:28:51.537Z,101784.22
2023-05-15T05:31:22.988Z,101781.47
2023-05-15T05:33:52.897Z,101790.03
2023-05-15T05:36:23.308Z,101786.03
2023-05-15T05:38:52.205Z,101794.72
2023-05-15T05:41:26.520Z,101795.59
2023-05-15T05:43:54.623Z,101799.03
2023-05-15T05:49:02.976Z,101806.53
2023-05-15T06:03:04.778Z,101810.09
2023-05-15T06:08:07.835Z,101809.16
2023-05-15T06:10:36.757Z,101818.56
2023-05-15T06:13:07.483Z,101807.91
2023-05-15T06:15:37.797Z,101818.81
2023-05-15T06:20:51.284Z,101822.03
2023-05-15T06:23:19.502Z,101827.69
2023-05-15T06:25:48.598Z,101828.41
2023-05-15T06:31:01.129Z,101826.44
2023-05-15T06:33:34.894Z,101832.66
2023-05-15T06:36:03.821Z,101828.28
2023-05-15T06:38:43.601Z,101839.03
2023-05-15T06:41:13.156Z,101844.53
2023-05-15T06:43:41.723Z,101831.81
2023-05-15T06:46:18.111Z,101841.75
2023-05-15T06:48:46.882Z,101840.69
2023-05-15T06:51:15.402Z,101841.53
2023-05-15T06:53:49.839Z,101843.25
2023-05-15T07:10:29.578Z,101860.97
2023-05-15T07:12:57.768Z,101856.91
2023-05-15T07:15:26.134Z,101856.66
2023-05-15T07:18:00.599Z,101868.66
2023-05-15T07:20:40.262Z,101865.47
2023-05-15T07:23:13.074Z,101858.88
2023-05-15T07:25:57.228Z,101873.28
2023-05-15T07:28:26.837Z,101863.38
2023-05-15T07:30:57.831Z,101868.78
2023-05-15T07:33:40.591Z,101875.00
2023-05-15T07:36:09.115Z,101877.94
2023-05-15T07:38:41.853Z,101886.63
2023-05-15T07:44:55.851Z,101877.81
2023-05-15T07:47:33.042Z,101887.72
2023-05-15T07:50:01.184Z,101884.56
2023-05-15T07:52:29.440Z,101887.75
2023-05-15T07:54:57.486Z,101889.69
2023-05-15T08:00:41.072Z,101882.59
2023-05-15T08:03:13.092Z,101883.94
2023-05-15T08:05:42.044Z,101888.31
2023-05-15T08:08:10.728Z,101891.16
2023-05-15T08:10:39.625Z,101879.44
2023-05-15T08:13:07.623Z,101897.25
2023-05-15T08:15:35.824Z,101895.81
2023-05-15T08:18:10.507Z,101888.97
2023-05-15T08:20:38.965Z,101892.13
2023-05-15T08:23:08.052Z,101888.34
2023-05-15T08:25:44.826Z,101892.25
2023-05-15T08:28:12.902Z,101896.41
2023-05-15T08:30:41.423Z,101902.41
2023-05-15T08:33:11.255Z,101908.75
2023-05-15T08:38:24.085Z,101915.38
2023-05-15T08:40:55.822Z,101912.41
2023-05-15T08:43:25.296Z,101917.56
2023-05-15T08:45:55.421Z,101913.91
2023-05-15T08:48:26.598Z,101919.72
2023-05-15T08:50:57.993Z,101916.81
2023-05-15T08:55:54.908Z,101909.47
2023-05-15T08:58:26.249Z,101907.53
2023-05-15T09:00:56.234Z,101912.53
2023-05-15T09:03:26.006Z,101915.84
2023-05-15T09:05:55.081Z,101921.50
2023-05-15T09:08:25.468Z,101923.97
2023-05-15T09:10:57.842Z,101921.47
2023-05-15T09:13:25.931Z,101936.91
2023-05-15T09:15:54.202Z,101930.41
2023-05-15T09:18:22.666Z,101929.69
2023-05-15T09:20:54.686Z,101931.50
2023-05-15T09:23:26.057Z,101934.69
2023-05-15T09:25:57.064Z,101929.91
2023-05-15T09:28:36.973Z,101927.13
2023-05-15T09:31:06.490Z,101929.09
2023-05-15T09:33:36.517Z,101932.50
2023-05-15T09:36:07.754Z,101927.81
2023-05-15T09:38:41.093Z,101924.44
2023-05-15T09:41:11.571Z,101926.28
2023-05-15T09:43:41.100Z,101935.06
2023-05-15T09:46:12.432Z,101933.00
2023-05-15T09:48:40.731Z,101934.19
2023-05-15T09:51:17.301Z,101932.72
2023-05-15T09:53:50.675Z,101945.25
2023-05-15T09:56:22.557Z,101929.56
2023-05-15T09:59:01.528Z,101947.69
2023-05-15T10:01:38.179Z,101946.34
2023-05-15T10:04:08.158Z,101930.19
2023-05-15T10:06:44.751Z,101939.84
2023-05-15T10:09:15.616Z,101929.81
2023-05-15T10:11:53.322Z,101934.97
2023-05-15T10:14:23.663Z,101931.19
2023-05-15T10:16:55.227Z,101924.81
2023-05-15T10:19:27.509Z,101931.19
2023-05-15T10:21:59.904Z,101931.06
2023-05-15T10:24:36.463Z,101939.47
2023-05-15T10:27:06.273Z,101926.75
2023-05-15T10:29:40.084Z,101935.19
2023-05-15T10:32:08.316Z,101935.19
2023-05-15T10:34:40.124Z,101944.88
2023-05-15T10:37:13.588Z,101941.81
2023-05-15T10:39:53.237Z,101943.50
2023-05-15T10:42:22.276Z,101945.09
2023-05-15T10:44:53.070Z,101940.78
2023-05-15T10:47:21.954Z,101947.16
2023-05-15T10:49:56.061Z,101941.97
2023-05-15T10:52:26.303Z,101957.19
2023-05-15T10:54:58.688Z,101954.72
2023-05-15T10:57:40.335Z,101960.97
2023-05-15T11:00:29.245Z,101961.81
2023-05-15T11:03:17.356Z,101949.81
2023-05-15T11:06:11.525Z,101963.28
2023-05-15T11:17:43.508Z,101971.84
2023-05-15T11:24:12.691Z,101959.13
2023-05-15T11:27:25.800Z,101941.97
2023-05-15T11:31:05.290Z,101965.19
2023-05-15T11:36:29.405Z,101954.88
2023-05-15T11:40:05.030Z,101954.78
2023-05-15T11:45:48.587Z,101943.41
2023-05-15T11:48:18.425Z,101949.19
2023-05-15T11:53:40.281Z,101943.06
2023-05-15T11:56:15.420Z,101955.06
2023-05-15T11:58:52.064Z,101965.03
2023-05-15T12:01:55.328Z,101965.03
2023-05-15T12:04:28.395Z,101959.47
2023-05-15T12:06:57.631Z,101953.31
2023-05-15T12:18:42.306Z,101970.97
2023-05-15T12:21:26.328Z,101974.91
2023-05-15T12:24:08.187Z,101970.09
2023-05-15T12:26:39.822Z,101978.06
2023-05-15T12:29:29.383Z,101985.69
2023-05-15T12:32:07.179Z,101975.28
2023-05-15T12:34:38.803Z,101973.47
2023-05-15T12:37:25.672Z,101974.91
2023-05-15T12:40:04.006Z,101970.44
2023-05-15T12:42:51.153Z,101978.66
2023-05-15T12:45:29.656Z,101979.53
2023-05-15T12:48:01.608Z,101962.56
2023-05-15T12:50:35.026Z,101975.72
2023-05-15T12:53:35.617Z,101980.47
2023-05-15T12:56:06.399Z,101974.22
2023-05-15T12:59:09.562Z,101983.13
2023-05-15T13:02:07.422Z,101987.53
2023-05-15T13:04:49.204Z,101954.97
2023-05-15T13:07:23.259Z,101961.16
2023-05-15T13:10:11.846Z,101969.19
2023-05-15T13:12:52.883Z,101970.13
2023-05-15T13:15:31.368Z,101962.88
2023-05-15T13:18:14.866Z,101987.31
2023-05-15T13:20:45.376Z,101972.03
2023-05-15T13:23:16.778Z,101979.50
2023-05-15T13:25:56.320Z,101960.66
2023-05-15T13:28:24.924Z,101962.25
2023-05-15T13:30:59.278Z,101969.84
2023-05-15T13:33:31.263Z,101980.66
2023-05-15T13:36:22.534Z,101975.13
2023-05-15T13:38:54.163Z,101970.03
2023-05-15T13:41:29.927Z,101967.31
2023-05-15T13:43:58.094Z,101982.97
2023-05-15T13:46:34.496Z,101982.28
2023-05-15T13:49:03.038Z,101977.94
2023-05-15T13:51:38.342Z,101967.06
2023-05-15T13:54:31.066Z,102000.91
2023-05-15T13:57:16.144Z,101987.50
2023-05-15T13:59:47.095Z,101986.22
2023-05-15T14:02:15.352Z,101993.66
2023-05-15T14:04:58.136Z,101997.00
2023-05-15T14:07:31.236Z,101996.94
2023-05-15T14:10:20.255Z,101982.91
2023-05-15T14:19:13.055Z,101993.19
2023-05-15T14:22:29.741Z,101983.06
2023-05-15T14:31:07.198Z,101987.97
2023-05-15T14:42:44.794Z,101983.16
2023-05-15T14:45:23.350Z,101965.41
2023-05-15T14:47:58.333Z,101974.56
2023-05-15T14:50:40.218Z,101982.56
2023-05-15T14:53:09.334Z,101970.47
2023-05-15T14:55:38.548Z,101977.38
2023-05-15T14:58:25.517Z,101978.88
2023-05-15T15:00:59.242Z,101984.03
2023-05-15T15:03:34.517Z,101989.81
2023-05-15T15:06:13.077Z,101981.66
2023-05-15T15:09:01.882Z,101973.28
2023-05-15T15:11:53.412Z,102009.88
2023-05-15T15:14:32.508Z,101981.63
2023-05-15T15:23:06.935Z,102000.00
2023-05-15T15:25:44.203Z,102013.47
2023-05-15T15:28:12.835Z,101999.66
2023-05-15T15:30:51.739Z,101987.59
2023-05-15T15:33:21.577Z,101991.84
2023-05-15T15:36:00.825Z,102009.53
2023-05-15T15:41:46.219Z,101994.59
2023-05-15T15:44:17.647Z,101995.91
2023-05-15T15:46:47.748Z,101995.63
2023-05-15T15:49:34.074Z,102002.44
2023-05-15T15:52:30.016Z,102002.09
2023-05-15T15:55:09.088Z,101985.88
2023-05-15T15:57:48.838Z,101994.78
2023-05-15T16:06:07.082Z,101998.69
2023-05-15T16:09:26.227Z,101987.84
2023-05-15T16:12:03.868Z,101985.59
2023-05-15T16:14:44.953Z,102003.78
2023-05-15T16:17:13.183Z,102006.31
2023-05-15T16:19:44.884Z,101995.47
2023-05-15T16:22:33.543Z,101999.41
2023-05-15T16:25:10.890Z,101991.13
2023-05-15T16:28:37.109Z,102013.84
2023-05-15T16:48:32.120Z,102015.63
2023-05-15T16:51:01.814Z,102014.28
2023-05-15T16:53:40.399Z,102014.16
2023-05-15T16:56:42.116Z,102003.91
2023-05-15T16:59:34.734Z,102015.78
2023-05-15T17:02:07.962Z,102004.34
2023-05-15T17:04:58.513Z,102000.44
2023-05-15T17:07:36.302Z,102003.41
2023-05-15T17:10:07.716Z,102006.34
2023-05-15T17:12:36.143Z,102005.19
2023-05-15T17:15:09.256Z,102020.25
2023-05-15T17:17:42.348Z,102015.69
2023-05-15T17:20:26.552Z,102025.50
2023-05-15T17:23:25.202Z,102013.47
2023-05-15T17:25:54.080Z,102011.56
2023-05-15T17:28:22.381Z,102009.72
2023-05-15T17:31:20.032Z,102012.66
2023-05-15T17:37:07.615Z,102019.06
2023-05-15T17:45:17.566Z,102016.19
2023-05-15T17:50:29.711Z,102015.34
2023-05-15T17:53:04.933Z,102021.22
2023-05-15T17:55:52.646Z,102019.75
2023-05-15T17:58:21.385Z,102022.56
2023-05-15T18:00:52.449Z,102024.66
2023-05-15T18:03:23.953Z,102023.81
2023-05-15T18:05:53.745Z,102028.31
2023-05-15T18:08:22.058Z,102026.00
2023-05-15T18:10:50.742Z,102016.28
2023-05-15T18:19:31.197Z,102017.13
2023-05-15T18:22:02.989Z,102017.75
2023-05-15T18:24:31.396Z,102032.09
2023-05-15T18:27:05.068Z,102041.44
2023-05-15T18:29:33.287Z,102035.84
2023-05-15T18:35:29.256Z,102037.66
2023-05-15T18:38:05.995Z,102035.81
2023-05-15T18:40:35.989Z,102041.94
2023-05-15T18:43:06.443Z,102044.38
2023-05-15T18:45:35.540Z,102045.75
2023-05-15T18:48:04.250Z,102042.06
2023-05-15T18:51:06.260Z,102032.88
2023-05-15T18:53:39.540Z,102037.41
2023-05-15T18:56:27.602Z,102041.19
2023-05-15T18:59:15.434Z,102043.03
2023-05-15T19:01:54.586Z,102057.41
2023-05-15T19:08:13.277Z,102044.44
2023-05-15T19:10:44.704Z,102044.53
2023-05-15T19:16:11.689Z,102055.50
2023-05-15T19:18:53.585Z,102065.81
2023-05-15T19:21:22.741Z,102071.50
2023-05-15T19:24:00.945Z,102056.88
2023-05-15T19:26:54.659Z,102072.41
2023-05-15T19:29:31.334Z,102064.47
2023-05-15T19:32:00.635Z,102052.47
2023-05-15T19:34:34.139Z,102073.94
2023-05-15T19:37:13.021Z,102059.56
2023-05-15T19:42:28.542Z,102065.47
2023-05-15T19:53:38.051Z,102059.03
2023-05-15T19:59:19.453Z,102066.03
2023-05-15T21:02:09.885Z,102111.63
2023-05-15T21:04:39.367Z,102119.91
2023-05-15T21:07:27.878Z,102120.47
2023-05-15T21:09:56.233Z,102116.50
2023-05-15T21:12:24.917Z,102115.97
2023-05-15T21:14:53.862Z,102114.69
2023-05-15T21:17:33.677Z,102117.91
2023-05-15T21:20:04.179Z,102109.13
2023-05-15T21:22:42.284Z,102108.47
2023-05-15T21:25:12.207Z,102110.19
2023-05-15T21:27:40.897Z,102120.91
2023-05-15T21:30:12.046Z,102123.50
2023-05-15T21:32:41.711Z,102121.13
2023-05-15T21:35:10.776Z,102122.88
2023-05-15T21:37:42.031Z,102121.38
2023-05-15T21:40:12.848Z,102112.34
2023-05-15T21:45:26.464Z,102125.97
2023-05-15T21:48:02.102Z,102126.94
2023-05-15T21:50:32.779Z,102122.66
2023-05-15T21:53:01.755Z,102120.06
2023-05-15T21:55:30.098Z,102115.78
2023-05-15T21:58:10.095Z,102127.50
2023-05-15T22:00:40.541Z,102129.28
2023-05-15T22:06:10.238Z,102134.66
2023-05-15T22:08:38.525Z,102132.94
2023-05-15T22:11:09.257Z,102135.53
2023-05-15T22:13:45.015Z,102133.72
2023-05-15T22:16:33.464Z,102139.16
2023-05-15T22:25:26.257Z,102149.03
2023-05-15T22:30:36.996Z,102146.91
2023-05-15T22:46:23.070Z,102161.63
2023-05-15T22:49:24.192Z,102160.09
2023-05-15T22:52:13.686Z,102163.75
2023-05-15T23:00:21.102Z,102154.59
2023-05-15T23:05:38.996Z,102158.47
2023-05-15T23:10:44.358Z,102153.28
2023-05-15T23:13:12.814Z,102148.34
2023-05-15T23:21:11.883Z,102161.00
2023-05-15T23:23:53.446Z,102155.84
2023-05-15T23:26:36.647Z,102155.84
2023-05-15T23:29:05.022Z,102160.34
2023-05-15T23:31:34.422Z,102154.22
2023-05-15T23:34:10.779Z,102148.94
2023-05-15T23:39:37.980Z,102156.91
2023-05-15T23:42:13.087Z,102156.19
2023-05-15T23:44:42.298Z,102149.34
2023-05-15T23:47:12.517Z,102155.66
2023-05-15T23:49:54.619Z,102156.63
2023-05-15T23:52:22.980Z,102164.88
2023-05-15T23:58:14.214Z,102160.56
